sensor_id;sensor_type;location;lat;lon;timestamp;P1;durP1;ratioP1;P2;durP2;ratioP2
13122;SDS011;6627;50.920;12.050;2023-07-31T00:01:07;4.67;;;2.10;;
13122;SDS011;6627;50.920;12.050;2023-07-31T00:03:36;5.80;;;2.27;;
13122;SDS011;6627;50.920;12.050;2023-07-31T00:06:03;4.60;;;2.10;;
13122;SDS011;6627;50.920;12.050;2023-07-31T00:08:31;6.43;;;2.00;;
13122;SDS011;6627;50.920;12.050;2023-07-31T00:10:59;3.23;;;2.13;;
13122;SDS011;6627;50.920;12.050;2023-07-31T00:13:28;5.57;;;2.00;;
13122;SDS011;6627;50.920;12.050;2023-07-31T00:15:55;4.23;;;2.17;;
13122;SDS011;6627;50.920;12.050;2023-07-31T00:18:23;5.57;;;2.50;;
13122;SDS011;6627;50.920;12.050;2023-07-31T00:20:51;3.83;;;2.10;;
13122;SDS011;6627;50.920;12.050;2023-07-31T00:23:18;2.73;;;1.90;;
13122;SDS011;6627;50.920;12.050;2023-07-31T00:25:46;6.53;;;2.10;;
13122;SDS011;6627;50.920;12.050;2023-07-31T00:28:14;5.90;;;1.93;;
13122;SDS011;6627;50.920;12.050;2023-07-31T00:30:43;4.50;;;2.13;;
13122;SDS011;6627;50.920;12.050;2023-07-31T00:33:10;3.03;;;1.90;;
13122;SDS011;6627;50.920;12.050;2023-07-31T00:35:38;3.47;;;2.20;;
13122;SDS011;6627;50.920;12.050;2023-07-31T00:38:06;3.40;;;2.00;;
13122;SDS011;6627;50.920;12.050;2023-07-31T00:40:34;4.50;;;2.10;;
13122;SDS011;6627;50.920;12.050;2023-07-31T00:43:03;3.63;;;2.20;;
13122;SDS011;6627;50.920;12.050;2023-07-31T00:45:31;5.23;;;2.20;;
13122;SDS011;6627;50.920;12.050;2023-07-31T00:48:00;5.60;;;2.27;;
13122;SDS011;6627;50.920;12.050;2023-07-31T00:50:28;5.63;;;2.20;;
13122;SDS011;6627;50.920;12.050;2023-07-31T00:52:57;3.60;;;1.83;;
13122;SDS011;6627;50.920;12.050;2023-07-31T00:55:25;4.23;;;1.87;;
13122;SDS011;6627;50.920;12.050;2023-07-31T00:57:53;4.03;;;2.07;;
13122;SDS011;6627;50.920;12.050;2023-07-31T01:00:22;2.63;;;1.70;;
13122;SDS011;6627;50.920;12.050;2023-07-31T01:02:49;5.33;;;2.10;;
13122;SDS011;6627;50.920;12.050;2023-07-31T01:05:20;4.97;;;1.90;;
13122;SDS011;6627;50.920;12.050;2023-07-31T01:08:07;4.73;;;2.30;;
13122;SDS011;6627;50.920;12.050;2023-07-31T01:10:44;4.63;;;2.30;;
13122;SDS011;6627;50.920;12.050;2023-07-31T01:13:15;6.23;;;2.17;;
13122;SDS011;6627;50.920;12.050;2023-07-31T01:15:43;7.13;;;2.10;;
13122;SDS011;6627;50.920;12.050;2023-07-31T01:18:11;3.33;;;2.07;;
13122;SDS011;6627;50.920;12.050;2023-07-31T01:20:40;4.83;;;2.20;;
13122;SDS011;6627;50.920;12.050;2023-07-31T01:26:25;5.27;;;2.13;;
13122;SDS011;6627;50.920;12.050;2023-07-31T01:29:00;4.80;;;2.30;;
13122;SDS011;6627;50.920;12.050;2023-07-31T01:31:33;3.17;;;1.93;;
13122;SDS011;6627;50.920;12.050;2023-07-31T01:34:03;4.63;;;2.03;;
13122;SDS011;6627;50.920;12.050;2023-07-31T01:36:32;6.43;;;2.20;;
13122;SDS011;6627;50.920;12.050;2023-07-31T01:39:00;3.63;;;1.93;;
13122;SDS011;6627;50.920;12.050;2023-07-31T01:41:30;4.67;;;2.50;;
13122;SDS011;6627;50.920;12.050;2023-07-31T01:43:58;4.90;;;2.40;;
13122;SDS011;6627;50.920;12.050;2023-07-31T01:46:25;4.37;;;2.57;;
13122;SDS011;6627;50.920;12.050;2023-07-31T01:48:53;7.17;;;2.23;;
13122;SDS011;6627;50.920;12.050;2023-07-31T01:51:21;6.73;;;2.43;;
13122;SDS011;6627;50.920;12.050;2023-07-31T01:53:48;5.40;;;2.30;;
13122;SDS011;6627;50.920;12.050;2023-07-31T01:56:16;3.77;;;2.10;;
13122;SDS011;6627;50.920;12.050;2023-07-31T01:58:45;3.97;;;2.30;;
13122;SDS011;6627;50.920;12.050;2023-07-31T02:01:13;6.40;;;2.40;;
13122;SDS011;6627;50.920;12.050;2023-07-31T02:03:40;5.43;;;2.27;;
13122;SDS011;6627;50.920;12.050;2023-07-31T02:06:08;3.73;;;2.30;;
13122;SDS011;6627;50.920;12.050;2023-07-31T02:08:36;6.30;;;2.40;;
13122;SDS011;6627;50.920;12.050;2023-07-31T02:11:04;6.23;;;2.17;;
13122;SDS011;6627;50.920;12.050;2023-07-31T02:13:32;6.90;;;2.20;;
13122;SDS011;6627;50.920;12.050;2023-07-31T02:16:02;5.73;;;2.30;;
13122;SDS011;6627;50.920;12.050;2023-07-31T02:18:30;5.70;;;2.20;;
13122;SDS011;6627;50.920;12.050;2023-07-31T02:20:57;6.90;;;2.27;;
13122;SDS011;6627;50.920;12.050;2023-07-31T02:23:25;3.73;;;2.00;;
13122;SDS011;6627;50.920;12.050;2023-07-31T02:25:53;6.97;;;2.63;;
13122;SDS011;6627;50.920;12.050;2023-07-31T02:28:21;7.17;;;2.30;;
13122;SDS011;6627;50.920;12.050;2023-07-31T02:30:49;6.30;;;2.43;;
13122;SDS011;6627;50.920;12.050;2023-07-31T02:33:19;6.20;;;2.60;;
13122;SDS011;6627;50.920;12.050;2023-07-31T02:35:47;6.57;;;2.37;;
13122;SDS011;6627;50.920;12.050;2023-07-31T02:38:15;4.33;;;2.60;;
13122;SDS011;6627;50.920;12.050;2023-07-31T02:40:42;7.83;;;2.50;;
13122;SDS011;6627;50.920;12.050;2023-07-31T02:43:10;5.40;;;2.70;;
13122;SDS011;6627;50.920;12.050;2023-07-31T02:45:38;7.30;;;2.80;;
13122;SDS011;6627;50.920;12.050;2023-07-31T02:48:06;5.00;;;2.57;;
13122;SDS011;6627;50.920;12.050;2023-07-31T02:50:34;6.57;;;2.60;;
13122;SDS011;6627;50.920;12.050;2023-07-31T02:53:02;3.87;;;2.17;;
13122;SDS011;6627;50.920;12.050;2023-07-31T02:55:30;6.17;;;2.70;;
13122;SDS011;6627;50.920;12.050;2023-07-31T02:57:58;6.53;;;2.67;;
13122;SDS011;6627;50.920;12.050;2023-07-31T03:00:25;8.87;;;2.53;;
13122;SDS011;6627;50.920;12.050;2023-07-31T03:02:53;6.60;;;2.43;;
13122;SDS011;6627;50.920;12.050;2023-07-31T03:05:21;7.33;;;2.73;;
13122;SDS011;6627;50.920;12.050;2023-07-31T03:07:50;6.60;;;2.63;;
13122;SDS011;6627;50.920;12.050;2023-07-31T03:10:17;4.30;;;2.17;;
13122;SDS011;6627;50.920;12.050;2023-07-31T03:12:46;4.53;;;2.50;;
13122;SDS011;6627;50.920;12.050;2023-07-31T03:15:14;7.30;;;2.70;;
13122;SDS011;6627;50.920;12.050;2023-07-31T03:17:42;8.70;;;2.63;;
13122;SDS011;6627;50.920;12.050;2023-07-31T03:20:10;6.60;;;2.80;;
13122;SDS011;6627;50.920;12.050;2023-07-31T03:22:38;6.50;;;2.63;;
13122;SDS011;6627;50.920;12.050;2023-07-31T03:25:07;6.83;;;2.70;;
13122;SDS011;6627;50.920;12.050;2023-07-31T03:27:35;5.90;;;2.80;;
13122;SDS011;6627;50.920;12.050;2023-07-31T03:30:03;8.80;;;2.97;;
13122;SDS011;6627;50.920;12.050;2023-07-31T03:32:32;4.63;;;2.43;;
13122;SDS011;6627;50.920;12.050;2023-07-31T03:35:00;6.87;;;2.50;;
13122;SDS011;6627;50.920;12.050;2023-07-31T03:37:28;3.97;;;2.23;;
13122;SDS011;6627;50.920;12.050;2023-07-31T03:39:55;6.93;;;3.03;;
13122;SDS011;6627;50.920;12.050;2023-07-31T03:42:24;4.30;;;2.60;;
13122;SDS011;6627;50.920;12.050;2023-07-31T03:44:53;4.73;;;2.90;;
13122;SDS011;6627;50.920;12.050;2023-07-31T03:47:20;5.23;;;3.00;;
13122;SDS011;6627;50.920;12.050;2023-07-31T03:49:48;8.43;;;3.03;;
13122;SDS011;6627;50.920;12.050;2023-07-31T03:52:16;5.53;;;2.70;;
13122;SDS011;6627;50.920;12.050;2023-07-31T03:54:44;5.13;;;3.10;;
13122;SDS011;6627;50.920;12.050;2023-07-31T03:57:11;8.00;;;2.97;;
13122;SDS011;6627;50.920;12.050;2023-07-31T03:59:40;7.27;;;2.97;;
13122;SDS011;6627;50.920;12.050;2023-07-31T04:02:08;7.10;;;2.93;;
13122;SDS011;6627;50.920;12.050;2023-07-31T04:04:36;6.20;;;2.60;;
13122;SDS011;6627;50.920;12.050;2023-07-31T04:07:03;9.30;;;3.00;;
13122;SDS011;6627;50.920;12.050;2023-07-31T04:09:31;7.03;;;3.00;;
13122;SDS011;6627;50.920;12.050;2023-07-31T04:11:59;6.33;;;2.93;;
13122;SDS011;6627;50.920;12.050;2023-07-31T04:14:28;6.43;;;3.27;;
13122;SDS011;6627;50.920;12.050;2023-07-31T04:16:57;7.20;;;3.50;;
13122;SDS011;6627;50.920;12.050;2023-07-31T04:19:25;7.40;;;2.97;;
13122;SDS011;6627;50.920;12.050;2023-07-31T04:21:52;7.70;;;2.90;;
13122;SDS011;6627;50.920;12.050;2023-07-31T04:24:20;6.20;;;3.20;;
13122;SDS011;6627;50.920;12.050;2023-07-31T04:26:49;6.60;;;2.93;;
13122;SDS011;6627;50.920;12.050;2023-07-31T04:29:17;8.67;;;3.00;;
13122;SDS011;6627;50.920;12.050;2023-07-31T04:31:45;3.80;;;2.60;;
13122;SDS011;6627;50.920;12.050;2023-07-31T04:34:15;11.27;;;3.10;;
13122;SDS011;6627;50.920;12.050;2023-07-31T04:36:43;4.27;;;2.73;;
13122;SDS011;6627;50.920;12.050;2023-07-31T04:39:10;5.10;;;2.70;;
13122;SDS011;6627;50.920;12.050;2023-07-31T04:41:38;5.90;;;2.80;;
13122;SDS011;6627;50.920;12.050;2023-07-31T04:44:06;7.43;;;2.73;;
13122;SDS011;6627;50.920;12.050;2023-07-31T04:46:34;5.17;;;2.70;;
13122;SDS011;6627;50.920;12.050;2023-07-31T04:49:02;5.07;;;3.00;;
13122;SDS011;6627;50.920;12.050;2023-07-31T04:51:31;6.40;;;3.20;;
13122;SDS011;6627;50.920;12.050;2023-07-31T04:53:59;7.50;;;2.60;;
13122;SDS011;6627;50.920;12.050;2023-07-31T04:56:27;5.47;;;2.77;;
13122;SDS011;6627;50.920;12.050;2023-07-31T04:58:54;8.30;;;2.77;;
13122;SDS011;6627;50.920;12.050;2023-07-31T05:01:22;18.60;;;3.30;;
13122;SDS011;6627;50.920;12.050;2023-07-31T05:03:50;5.17;;;2.83;;
13122;SDS011;6627;50.920;12.050;2023-07-31T05:06:17;7.47;;;3.07;;
13122;SDS011;6627;50.920;12.050;2023-07-31T05:08:47;6.97;;;3.20;;
13122;SDS011;6627;50.920;12.050;2023-07-31T05:11:15;5.80;;;3.17;;
13122;SDS011;6627;50.920;12.050;2023-07-31T05:13:43;5.33;;;2.67;;
13122;SDS011;6627;50.920;12.050;2023-07-31T05:16:10;5.97;;;2.47;;
13122;SDS011;6627;50.920;12.050;2023-07-31T05:18:38;6.50;;;2.90;;
13122;SDS011;6627;50.920;12.050;2023-07-31T05:21:06;6.10;;;2.60;;
13122;SDS011;6627;50.920;12.050;2023-07-31T05:23:34;6.43;;;2.83;;
13122;SDS011;6627;50.920;12.050;2023-07-31T05:26:06;8.37;;;2.90;;
13122;SDS011;6627;50.920;12.050;2023-07-31T05:28:35;6.50;;;3.10;;
13122;SDS011;6627;50.920;12.050;2023-07-31T05:31:03;8.40;;;3.10;;
13122;SDS011;6627;50.920;12.050;2023-07-31T05:33:32;6.87;;;3.03;;
13122;SDS011;6627;50.920;12.050;2023-07-31T05:36:00;7.30;;;3.13;;
13122;SDS011;6627;50.920;12.050;2023-07-31T05:38:28;7.73;;;2.97;;
13122;SDS011;6627;50.920;12.050;2023-07-31T05:40:55;4.80;;;2.57;;
13122;SDS011;6627;50.920;12.050;2023-07-31T05:43:24;5.93;;;2.83;;
13122;SDS011;6627;50.920;12.050;2023-07-31T05:45:52;4.50;;;2.70;;
13122;SDS011;6627;50.920;12.050;2023-07-31T05:48:20;6.37;;;3.00;;
13122;SDS011;6627;50.920;12.050;2023-07-31T05:50:47;5.10;;;2.80;;
13122;SDS011;6627;50.920;12.050;2023-07-31T05:53:15;4.87;;;2.40;;
13122;SDS011;6627;50.920;12.050;2023-07-31T05:55:42;5.93;;;2.60;;
13122;SDS011;6627;50.920;12.050;2023-07-31T05:58:10;8.70;;;2.80;;
13122;SDS011;6627;50.920;12.050;2023-07-31T06:00:39;5.77;;;2.53;;
13122;SDS011;6627;50.920;12.050;2023-07-31T06:03:07;6.13;;;3.10;;
13122;SDS011;6627;50.920;12.050;2023-07-31T06:05:35;6.63;;;2.90;;
13122;SDS011;6627;50.920;12.050;2023-07-31T06:08:03;4.63;;;2.80;;
13122;SDS011;6627;50.920;12.050;2023-07-31T06:10:31;5.13;;;2.67;;
13122;SDS011;6627;50.920;12.050;2023-07-31T06:13:00;5.90;;;3.00;;
13122;SDS011;6627;50.920;12.050;2023-07-31T06:15:28;6.77;;;2.83;;
13122;SDS011;6627;50.920;12.050;2023-07-31T06:17:57;4.17;;;2.57;;
13122;SDS011;6627;50.920;12.050;2023-07-31T06:20:27;5.50;;;2.70;;
13122;SDS011;6627;50.920;12.050;2023-07-31T06:22:55;7.57;;;3.20;;
13122;SDS011;6627;50.920;12.050;2023-07-31T06:25:23;4.93;;;2.90;;
13122;SDS011;6627;50.920;12.050;2023-07-31T06:27:51;6.53;;;3.10;;
13122;SDS011;6627;50.920;12.050;2023-07-31T06:30:19;5.50;;;2.93;;
13122;SDS011;6627;50.920;12.050;2023-07-31T06:32:46;7.10;;;3.00;;
13122;SDS011;6627;50.920;12.050;2023-07-31T06:35:16;6.47;;;2.87;;
13122;SDS011;6627;50.920;12.050;2023-07-31T06:37:43;6.27;;;3.00;;
13122;SDS011;6627;50.920;12.050;2023-07-31T06:40:11;7.03;;;2.97;;
13122;SDS011;6627;50.920;12.050;2023-07-31T06:42:39;5.73;;;3.00;;
13122;SDS011;6627;50.920;12.050;2023-07-31T06:45:07;7.03;;;2.83;;
13122;SDS011;6627;50.920;12.050;2023-07-31T06:47:36;9.30;;;3.03;;
13122;SDS011;6627;50.920;12.050;2023-07-31T06:50:04;7.43;;;2.83;;
13122;SDS011;6627;50.920;12.050;2023-07-31T06:52:33;5.47;;;2.60;;
13122;SDS011;6627;50.920;12.050;2023-07-31T06:55:01;6.33;;;2.90;;
13122;SDS011;6627;50.920;12.050;2023-07-31T06:57:30;5.83;;;2.60;;
13122;SDS011;6627;50.920;12.050;2023-07-31T06:59:58;5.10;;;2.60;;
13122;SDS011;6627;50.920;12.050;2023-07-31T07:02:26;7.33;;;2.70;;
13122;SDS011;6627;50.920;12.050;2023-07-31T07:04:54;4.93;;;2.70;;
13122;SDS011;6627;50.920;12.050;2023-07-31T07:07:22;7.60;;;3.00;;
13122;SDS011;6627;50.920;12.050;2023-07-31T07:09:51;6.03;;;2.70;;
13122;SDS011;6627;50.920;12.050;2023-07-31T07:12:19;5.80;;;3.20;;
13122;SDS011;6627;50.920;12.050;2023-07-31T07:14:46;4.97;;;2.60;;
13122;SDS011;6627;50.920;12.050;2023-07-31T07:17:14;7.07;;;2.90;;
13122;SDS011;6627;50.920;12.050;2023-07-31T07:19:42;4.83;;;2.40;;
13122;SDS011;6627;50.920;12.050;2023-07-31T07:22:11;5.43;;;2.83;;
13122;SDS011;6627;50.920;12.050;2023-07-31T07:24:39;7.37;;;2.73;;
13122;SDS011;6627;50.920;12.050;2023-07-31T07:27:08;4.67;;;2.50;;
13122;SDS011;6627;50.920;12.050;2023-07-31T07:29:37;6.20;;;2.90;;
13122;SDS011;6627;50.920;12.050;2023-07-31T07:32:05;4.33;;;2.70;;
13122;SDS011;6627;50.920;12.050;2023-07-31T07:34:33;4.63;;;2.60;;
13122;SDS011;6627;50.920;12.050;2023-07-31T07:37:01;7.10;;;2.80;;
13122;SDS011;6627;50.920;12.050;2023-07-31T07:39:29;4.73;;;2.70;;
13122;SDS011;6627;50.920;12.050;2023-07-31T07:41:57;5.07;;;2.50;;
13122;SDS011;6627;50.920;12.050;2023-07-31T07:44:26;4.93;;;2.53;;
13122;SDS011;6627;50.920;12.050;2023-07-31T07:46:53;3.60;;;2.63;;
13122;SDS011;6627;50.920;12.050;2023-07-31T07:49:21;7.53;;;3.20;;
13122;SDS011;6627;50.920;12.050;2023-07-31T07:51:49;6.83;;;2.53;;
13122;SDS011;6627;50.920;12.050;2023-07-31T07:54:17;4.57;;;2.87;;
13122;SDS011;6627;50.920;12.050;2023-07-31T07:56:45;5.80;;;2.67;;
13122;SDS011;6627;50.920;12.050;2023-07-31T07:59:13;3.63;;;2.37;;
13122;SDS011;6627;50.920;12.050;2023-07-31T08:01:42;4.83;;;3.17;;
13122;SDS011;6627;50.920;12.050;2023-07-31T08:04:10;8.47;;;2.97;;
13122;SDS011;6627;50.920;12.050;2023-07-31T08:06:37;6.83;;;2.67;;
13122;SDS011;6627;50.920;12.050;2023-07-31T08:09:05;4.97;;;2.77;;
13122;SDS011;6627;50.920;12.050;2023-07-31T08:11:34;3.60;;;2.80;;
13122;SDS011;6627;50.920;12.050;2023-07-31T08:14:02;4.80;;;2.87;;
13122;SDS011;6627;50.920;12.050;2023-07-31T08:16:30;5.20;;;2.93;;
13122;SDS011;6627;50.920;12.050;2023-07-31T08:18:59;4.33;;;2.50;;
13122;SDS011;6627;50.920;12.050;2023-07-31T08:21:26;6.10;;;3.13;;
13122;SDS011;6627;50.920;12.050;2023-07-31T08:23:55;5.00;;;2.57;;
13122;SDS011;6627;50.920;12.050;2023-07-31T08:26:23;5.13;;;2.80;;
13122;SDS011;6627;50.920;12.050;2023-07-31T08:28:51;5.60;;;2.70;;
13122;SDS011;6627;50.920;12.050;2023-07-31T08:31:18;4.33;;;2.70;;
13122;SDS011;6627;50.920;12.050;2023-07-31T08:33:46;5.33;;;2.90;;
13122;SDS011;6627;50.920;12.050;2023-07-31T08:36:15;4.53;;;2.73;;
13122;SDS011;6627;50.920;12.050;2023-07-31T08:38:44;7.40;;;2.67;;
13122;SDS011;6627;50.920;12.050;2023-07-31T08:41:12;5.73;;;2.80;;
13122;SDS011;6627;50.920;12.050;2023-07-31T08:43:42;6.47;;;2.80;;
13122;SDS011;6627;50.920;12.050;2023-07-31T08:46:10;6.43;;;2.87;;
13122;SDS011;6627;50.920;12.050;2023-07-31T08:48:39;5.07;;;2.90;;
13122;SDS011;6627;50.920;12.050;2023-07-31T08:51:09;5.93;;;2.87;;
13122;SDS011;6627;50.920;12.050;2023-07-31T08:53:38;5.07;;;2.77;;
13122;SDS011;6627;50.920;12.050;2023-07-31T08:56:06;6.63;;;2.80;;
13122;SDS011;6627;50.920;12.050;2023-07-31T08:58:34;3.83;;;2.40;;
13122;SDS011;6627;50.920;12.050;2023-07-31T09:01:03;7.67;;;2.93;;
13122;SDS011;6627;50.920;12.050;2023-07-31T09:03:33;5.43;;;2.93;;
13122;SDS011;6627;50.920;12.050;2023-07-31T09:06:02;4.77;;;2.97;;
13122;SDS011;6627;50.920;12.050;2023-07-31T09:08:32;5.87;;;2.77;;
13122;SDS011;6627;50.920;12.050;2023-07-31T09:11:02;6.83;;;3.20;;
13122;SDS011;6627;50.920;12.050;2023-07-31T09:13:30;6.50;;;2.60;;
13122;SDS011;6627;50.920;12.050;2023-07-31T09:15:59;5.33;;;2.50;;
13122;SDS011;6627;50.920;12.050;2023-07-31T09:18:26;6.50;;;2.60;;
13122;SDS011;6627;50.920;12.050;2023-07-31T09:21:01;3.87;;;2.50;;
13122;SDS011;6627;50.920;12.050;2023-07-31T09:26:28;7.10;;;2.73;;
13122;SDS011;6627;50.920;12.050;2023-07-31T09:28:57;5.83;;;2.40;;
13122;SDS011;6627;50.920;12.050;2023-07-31T09:31:40;4.93;;;2.17;;
13122;SDS011;6627;50.920;12.050;2023-07-31T09:34:09;3.87;;;2.43;;
13122;SDS011;6627;50.920;12.050;2023-07-31T09:36:39;6.30;;;2.67;;
13122;SDS011;6627;50.920;12.050;2023-07-31T09:39:08;4.63;;;2.87;;
13122;SDS011;6627;50.920;12.050;2023-07-31T09:41:38;5.87;;;2.90;;
13122;SDS011;6627;50.920;12.050;2023-07-31T09:44:07;5.63;;;3.10;;
13122;SDS011;6627;50.920;12.050;2023-07-31T09:46:34;4.47;;;2.70;;
13122;SDS011;6627;50.920;12.050;2023-07-31T09:49:06;4.83;;;2.60;;
13122;SDS011;6627;50.920;12.050;2023-07-31T09:51:35;4.77;;;2.87;;
13122;SDS011;6627;50.920;12.050;2023-07-31T09:54:11;8.23;;;2.67;;
13122;SDS011;6627;50.920;12.050;2023-07-31T09:56:42;5.83;;;2.87;;
13122;SDS011;6627;50.920;12.050;2023-07-31T09:59:12;5.67;;;2.77;;
13122;SDS011;6627;50.920;12.050;2023-07-31T10:01:42;5.87;;;3.03;;
13122;SDS011;6627;50.920;12.050;2023-07-31T10:04:11;5.67;;;2.93;;
13122;SDS011;6627;50.920;12.050;2023-07-31T10:06:40;5.03;;;3.17;;
13122;SDS011;6627;50.920;12.050;2023-07-31T10:09:10;7.00;;;3.10;;
13122;SDS011;6627;50.920;12.050;2023-07-31T10:11:45;6.90;;;2.80;;
13122;SDS011;6627;50.920;12.050;2023-07-31T10:14:17;5.57;;;3.10;;
13122;SDS011;6627;50.920;12.050;2023-07-31T10:16:46;3.60;;;2.57;;
13122;SDS011;6627;50.920;12.050;2023-07-31T10:19:14;5.20;;;2.70;;
13122;SDS011;6627;50.920;12.050;2023-07-31T10:21:43;8.50;;;2.80;;
13122;SDS011;6627;50.920;12.050;2023-07-31T10:24:12;4.37;;;2.80;;
13122;SDS011;6627;50.920;12.050;2023-07-31T10:26:41;4.10;;;2.80;;
13122;SDS011;6627;50.920;12.050;2023-07-31T10:29:15;3.27;;;2.50;;
13122;SDS011;6627;50.920;12.050;2023-07-31T10:31:44;7.33;;;3.10;;
13122;SDS011;6627;50.920;12.050;2023-07-31T10:34:13;5.87;;;2.70;;
13122;SDS011;6627;50.920;12.050;2023-07-31T10:36:42;7.27;;;2.63;;
13122;SDS011;6627;50.920;12.050;2023-07-31T10:39:34;4.87;;;2.63;;
13122;SDS011;6627;50.920;12.050;2023-07-31T10:42:11;4.20;;;2.37;;
13122;SDS011;6627;50.920;12.050;2023-07-31T10:44:43;4.20;;;2.80;;
13122;SDS011;6627;50.920;12.050;2023-07-31T10:47:14;4.07;;;2.83;;
13122;SDS011;6627;50.920;12.050;2023-07-31T10:49:44;6.87;;;2.80;;
13122;SDS011;6627;50.920;12.050;2023-07-31T10:52:13;4.57;;;2.80;;
13122;SDS011;6627;50.920;12.050;2023-07-31T10:54:48;5.00;;;3.03;;
13122;SDS011;6627;50.920;12.050;2023-07-31T10:57:20;5.47;;;3.30;;
13122;SDS011;6627;50.920;12.050;2023-07-31T10:59:50;6.93;;;3.00;;
13122;SDS011;6627;50.920;12.050;2023-07-31T11:02:38;6.93;;;3.33;;
13122;SDS011;6627;50.920;12.050;2023-07-31T11:05:06;8.03;;;3.00;;
13122;SDS011;6627;50.920;12.050;2023-07-31T11:07:47;5.80;;;3.23;;
13122;SDS011;6627;50.920;12.050;2023-07-31T11:10:16;3.93;;;2.77;;
13122;SDS011;6627;50.920;12.050;2023-07-31T11:12:46;5.60;;;3.23;;
13122;SDS011;6627;50.920;12.050;2023-07-31T11:15:14;4.77;;;2.70;;
13122;SDS011;6627;50.920;12.050;2023-07-31T11:17:42;4.77;;;3.10;;
13122;SDS011;6627;50.920;12.050;2023-07-31T11:20:10;6.93;;;2.60;;
13122;SDS011;6627;50.920;12.050;2023-07-31T11:22:38;4.77;;;2.90;;
13122;SDS011;6627;50.920;12.050;2023-07-31T11:25:07;4.27;;;2.80;;
13122;SDS011;6627;50.920;12.050;2023-07-31T11:27:38;5.17;;;2.70;;
13122;SDS011;6627;50.920;12.050;2023-07-31T11:30:09;7.77;;;2.87;;
13122;SDS011;6627;50.920;12.050;2023-07-31T11:32:38;5.87;;;2.87;;
13122;SDS011;6627;50.920;12.050;2023-07-31T11:35:06;4.20;;;2.80;;
13122;SDS011;6627;50.920;12.050;2023-07-31T11:37:39;4.87;;;2.83;;
13122;SDS011;6627;50.920;12.050;2023-07-31T11:40:08;3.80;;;2.80;;
13122;SDS011;6627;50.920;12.050;2023-07-31T11:42:36;3.97;;;2.67;;
13122;SDS011;6627;50.920;12.050;2023-07-31T11:45:05;5.57;;;2.63;;
13122;SDS011;6627;50.920;12.050;2023-07-31T11:47:36;5.80;;;2.93;;
13122;SDS011;6627;50.920;12.050;2023-07-31T11:50:05;4.97;;;2.60;;
13122;SDS011;6627;50.920;12.050;2023-07-31T11:52:37;5.23;;;2.87;;
13122;SDS011;6627;50.920;12.050;2023-07-31T11:55:12;5.40;;;3.10;;
13122;SDS011;6627;50.920;12.050;2023-07-31T11:57:42;4.00;;;2.67;;
13122;SDS011;6627;50.920;12.050;2023-07-31T12:00:12;7.23;;;2.60;;
13122;SDS011;6627;50.920;12.050;2023-07-31T12:02:42;4.37;;;2.90;;
13122;SDS011;6627;50.920;12.050;2023-07-31T12:05:11;7.97;;;3.17;;
13122;SDS011;6627;50.920;12.050;2023-07-31T12:07:43;6.17;;;2.77;;
13122;SDS011;6627;50.920;12.050;2023-07-31T12:10:28;6.87;;;2.83;;
13122;SDS011;6627;50.920;12.050;2023-07-31T12:13:01;3.17;;;2.70;;
13122;SDS011;6627;50.920;12.050;2023-07-31T12:15:34;5.43;;;3.07;;
13122;SDS011;6627;50.920;12.050;2023-07-31T12:18:05;6.83;;;2.87;;
13122;SDS011;6627;50.920;12.050;2023-07-31T12:20:39;4.83;;;2.80;;
13122;SDS011;6627;50.920;12.050;2023-07-31T12:23:13;4.47;;;2.90;;
13122;SDS011;6627;50.920;12.050;2023-07-31T12:25:42;4.70;;;2.70;;
13122;SDS011;6627;50.920;12.050;2023-07-31T12:28:10;3.57;;;2.60;;
13122;SDS011;6627;50.920;12.050;2023-07-31T12:30:38;4.33;;;2.83;;
13122;SDS011;6627;50.920;12.050;2023-07-31T12:33:13;7.27;;;3.30;;
13122;SDS011;6627;50.920;12.050;2023-07-31T12:35:43;3.93;;;2.60;;
13122;SDS011;6627;50.920;12.050;2023-07-31T12:38:13;6.63;;;3.10;;
13122;SDS011;6627;50.920;12.050;2023-07-31T12:40:41;8.00;;;2.80;;
13122;SDS011;6627;50.920;12.050;2023-07-31T12:43:09;5.23;;;2.50;;
13122;SDS011;6627;50.920;12.050;2023-07-31T12:45:37;7.63;;;2.97;;
13122;SDS011;6627;50.920;12.050;2023-07-31T12:48:05;4.87;;;2.90;;
13122;SDS011;6627;50.920;12.050;2023-07-31T12:50:34;6.83;;;3.10;;
13122;SDS011;6627;50.920;12.050;2023-07-31T12:53:05;4.77;;;2.77;;
13122;SDS011;6627;50.920;12.050;2023-07-31T12:55:33;4.10;;;2.53;;
13122;SDS011;6627;50.920;12.050;2023-07-31T12:58:02;4.70;;;2.60;;
13122;SDS011;6627;50.920;12.050;2023-07-31T13:00:30;4.30;;;2.60;;
13122;SDS011;6627;50.920;12.050;2023-07-31T13:02:58;4.43;;;2.50;;
13122;SDS011;6627;50.920;12.050;2023-07-31T13:05:27;3.70;;;2.77;;
13122;SDS011;6627;50.920;12.050;2023-07-31T13:07:56;4.77;;;2.77;;
13122;SDS011;6627;50.920;12.050;2023-07-31T13:10:24;6.93;;;2.80;;
13122;SDS011;6627;50.920;12.050;2023-07-31T13:12:54;5.60;;;2.93;;
13122;SDS011;6627;50.920;12.050;2023-07-31T13:15:22;3.60;;;2.37;;
13122;SDS011;6627;50.920;12.050;2023-07-31T13:17:51;5.70;;;2.57;;
13122;SDS011;6627;50.920;12.050;2023-07-31T13:20:19;3.57;;;2.47;;
13122;SDS011;6627;50.920;12.050;2023-07-31T13:22:47;4.17;;;2.77;;
13122;SDS011;6627;50.920;12.050;2023-07-31T13:25:16;4.27;;;2.60;;
13122;SDS011;6627;50.920;12.050;2023-07-31T13:27:44;6.17;;;2.60;;
13122;SDS011;6627;50.920;12.050;2023-07-31T13:30:12;5.40;;;2.80;;
13122;SDS011;6627;50.920;12.050;2023-07-31T13:32:40;5.30;;;2.70;;
13122;SDS011;6627;50.920;12.050;2023-07-31T13:35:08;4.37;;;2.70;;
13122;SDS011;6627;50.920;12.050;2023-07-31T13:37:37;7.20;;;2.83;;
13122;SDS011;6627;50.920;12.050;2023-07-31T13:40:06;5.50;;;2.73;;
13122;SDS011;6627;50.920;12.050;2023-07-31T13:42:35;4.17;;;2.87;;
13122;SDS011;6627;50.920;12.050;2023-07-31T13:45:03;5.57;;;2.57;;
13122;SDS011;6627;50.920;12.050;2023-07-31T13:47:32;5.27;;;2.60;;
13122;SDS011;6627;50.920;12.050;2023-07-31T13:49:59;3.90;;;2.70;;
13122;SDS011;6627;50.920;12.050;2023-07-31T13:52:27;3.43;;;2.40;;
13122;SDS011;6627;50.920;12.050;2023-07-31T13:54:55;7.40;;;2.97;;
13122;SDS011;6627;50.920;12.050;2023-07-31T13:57:23;4.60;;;2.63;;
13122;SDS011;6627;50.920;12.050;2023-07-31T13:59:52;4.30;;;2.70;;
13122;SDS011;6627;50.920;12.050;2023-07-31T14:02:20;4.83;;;2.90;;
13122;SDS011;6627;50.920;12.050;2023-07-31T14:04:48;4.83;;;2.77;;
13122;SDS011;6627;50.920;12.050;2023-07-31T14:07:16;4.37;;;2.40;;
13122;SDS011;6627;50.920;12.050;2023-07-31T14:09:44;4.97;;;3.13;;
13122;SDS011;6627;50.920;12.050;2023-07-31T14:12:12;6.37;;;2.67;;
13122;SDS011;6627;50.920;12.050;2023-07-31T14:14:40;6.87;;;2.83;;
13122;SDS011;6627;50.920;12.050;2023-07-31T14:17:09;4.67;;;2.70;;
13122;SDS011;6627;50.920;12.050;2023-07-31T14:19:36;3.90;;;2.40;;
13122;SDS011;6627;50.920;12.050;2023-07-31T14:22:04;4.73;;;2.63;;
13122;SDS011;6627;50.920;12.050;2023-07-31T14:24:32;3.97;;;2.53;;
13122;SDS011;6627;50.920;12.050;2023-07-31T14:27:00;4.13;;;2.67;;
13122;SDS011;6627;50.920;12.050;2023-07-31T14:29:29;4.67;;;2.30;;
13122;SDS011;6627;50.920;12.050;2023-07-31T14:31:57;5.10;;;2.50;;
13122;SDS011;6627;50.920;12.050;2023-07-31T14:34:26;5.37;;;2.83;;
13122;SDS011;6627;50.920;12.050;2023-07-31T14:36:54;4.70;;;2.40;;
13122;SDS011;6627;50.920;12.050;2023-07-31T14:39:22;3.00;;;2.10;;
13122;SDS011;6627;50.920;12.050;2023-07-31T14:41:50;4.40;;;2.63;;
13122;SDS011;6627;50.920;12.050;2023-07-31T14:44:18;4.27;;;2.23;;
13122;SDS011;6627;50.920;12.050;2023-07-31T14:46:47;3.97;;;2.73;;
13122;SDS011;6627;50.920;12.050;2023-07-31T14:49:14;3.70;;;2.43;;
13122;SDS011;6627;50.920;12.050;2023-07-31T14:51:44;2.93;;;2.43;;
13122;SDS011;6627;50.920;12.050;2023-07-31T14:54:11;4.63;;;2.77;;
13122;SDS011;6627;50.920;12.050;2023-07-31T14:56:39;4.47;;;2.77;;
13122;SDS011;6627;50.920;12.050;2023-07-31T14:59:07;4.57;;;3.00;;
13122;SDS011;6627;50.920;12.050;2023-07-31T15:01:35;5.30;;;3.27;;
13122;SDS011;6627;50.920;12.050;2023-07-31T15:04:04;3.40;;;2.70;;